• Join FlightAware (Why Join?)
  • Login
  • US Flag 
11:43AM EDT


 

Airport Tracker/Info


-or-


 

Live Flight TrackerFlight Track Log ✈ SKW6345 ✈ 15-Jun-2013 ✈ KBZN - KSFO

Flight Track Log - Related Links

Times and Time Zones

All times are in EDT time to prevent confusion due to time zone crossing. See the SKW6345 flight status page for this flight to view local times or setup timezone preferences in your user account.

Time Position Orientation Groundspeed Altitude Reporting Facility
EDT Latitude Longitude Course Direction KTS MPH feet Rate Location/Type
01:37PM 45.7097 -111.1794 223° Southwest 225 259 8,000  Level Salt Lake Center
01:38PM 45.7033 -111.2675 264° West 225 259 10,500 1,980 Climbing Salt Lake Center
01:39PM 45.7316 -111.5378 282° West  Level FlightAware Approximate
01:39PM 45.7164 -111.3725 280° West 251 289 12,100  Level Salt Lake Center
01:40PM 45.7466 -111.6931 288° West  Level FlightAware Approximate
01:41PM 45.7778 -111.8332 288° West  Level FlightAware Approximate
01:41PM 45.7278 -111.4858 278° West 279 321 14,700  Level Salt Lake Center
01:42PM 45.8099 -111.9728 290° West  Level FlightAware Approximate
01:42PM 45.6947 -111.5900 246° West 298 343 16,000  Level Salt Lake Center
01:43PM 45.6469 -111.6994 238° Southwest 319 367 17,700 1,620 Climbing Salt Lake Center
01:44PM 45.5981 -111.8081 237° Southwest 324 373 19,400 1,740 Climbing Salt Lake Center
01:45PM 45.5381 -111.9422 237° Southwest 331 381 21,300 1,440 Climbing Salt Lake Center
01:46PM 45.4867 -112.0572 238° Southwest 340 391 22,400 900 Climbing Salt Lake Center
01:47PM 45.4331 -112.1756 237° Southwest 351 404 23,200 720 Climbing Salt Lake Center
01:48PM 45.3775 -112.2981 237° Southwest 364 419 24,000 840 Climbing Salt Lake Center
01:49PM 45.3125 -112.4417 237° Southwest 378 435 25,000 780 Climbing Salt Lake Center
01:50PM 45.2556 -112.5656 237° Southwest 389 448 25,700 720 Climbing Salt Lake Center
01:51PM 45.1883 -112.7103 237° Southwest 395 455 26,600 780 Climbing Salt Lake Center
01:52PM 45.1308 -112.8367 237° Southwest 398 458 27,400 780 Climbing Salt Lake Center
01:53PM 45.0633 -112.9839 237° Southwest 399 459 28,300 780 Climbing Salt Lake Center
01:54PM 45.0028 -113.1100 236° Southwest 403 464 29,100 720 Climbing Salt Lake Center
01:55PM 44.9456 -113.2350 237° Southwest 399 459 29,800 720 Climbing Salt Lake Center
01:56PM 44.8769 -113.3800 236° Southwest 397 457 30,700 780 Climbing Salt Lake Center
01:57PM 44.8183 -113.5036 236° Southwest 397 457 31,500 600 Climbing Salt Lake Center
01:58PM 44.7519 -113.6444 236° Southwest 388 447 32,000 240 Climbing Salt Lake Center
01:59PM 44.6922 -113.7697 236° Southwest 399 459 32,000  Level Salt Lake Center
02:00PM 44.6242 -113.9178 237° Southwest 405 466 32,000  Level Salt Lake Center
02:01PM 44.5544 -114.0572 235° Southwest 409 471 32,000  Level Salt Lake Center
02:02PM 44.4939 -114.1856 237° Southwest 411 473 32,000  Level Salt Lake Center
02:03PM 44.4228 -114.3336 236° Southwest 410 472 32,000  Level Salt Lake Center
02:04PM 44.3603 -114.4619 236° Southwest 414 476 32,000  Level Salt Lake Center
02:05PM 44.2967 -114.5897 235° Southwest 417 480 32,000  Level Salt Lake Center
02:06PM 44.2233 -114.7372 235° Southwest 414 476 32,000  Level Salt Lake Center
02:07PM 44.1614 -114.8633 236° Southwest 412 474 32,000  Level Salt Lake Center
02:08PM 44.0886 -115.0092 235° Southwest 411 473 32,000  Level Salt Lake Center
02:09PM 44.0236 -115.1372 235° Southwest 416 479 32,000  Level Salt Lake Center
02:10PM 43.9500 -115.2828 235° Southwest 411 473 32,000  Level Salt Lake Center
02:12PM 43.8875 -115.4069 235° Southwest 410 472 32,000  Level Salt Lake Center
02:13PM 43.8147 -115.5514 235° Southwest 408 470 32,000  Level Salt Lake Center
02:14PM 43.7517 -115.6756 235° Southwest 409 471 32,000  Level Salt Lake Center
02:15PM 43.6803 -115.7914 230° Southwest 416 479 32,000  Level Salt Lake Center
02:16PM 43.5919 -115.9181 226° Southwest 408 470 32,000  Level Salt Lake Center
02:17PM 43.5158 -116.0264 226° Southwest 409 471 32,000  Level Salt Lake Center
02:18PM 43.4272 -116.1528 226° Southwest 408 470 32,000  Level Salt Lake Center
02:19PM 43.3514 -116.2600 226° Southwest 407 468 32,000  Level Salt Lake Center
02:20PM 43.2631 -116.3844 226° Southwest 406 467 32,000  Level Salt Lake Center
02:21PM 43.1867 -116.4906 225° Southwest 407 468 32,000  Level Salt Lake Center
02:22PM 43.0983 -116.6139 226° Southwest 406 467 32,000  Level Salt Lake Center
02:23PM 43.0225 -116.7200 226° Southwest 408 470 32,000  Level Salt Lake Center
02:24PM 42.9461 -116.8242 225° Southwest 406 467 32,000  Level Salt Lake Center
02:25PM 42.8569 -116.9467 225° Southwest 407 468 32,000  Level Salt Lake Center
02:26PM 42.7814 -117.0519 226° Southwest 405 466 32,000  Level Salt Lake Center
02:27PM 42.6917 -117.1742 225° Southwest 407 468 32,000  Level Salt Lake Center
02:28PM 42.6153 -117.2811 226° Southwest 411 473 32,000  Level Salt Lake Center
02:29PM 42.5247 -117.4014 224° Southwest 409 471 32,000  Level Salt Lake Center
02:30PM 42.4481 -117.5056 225° Southwest 408 470 32,000  Level Salt Lake Center
02:31PM 42.3581 -117.6294 226° Southwest 410 472 32,000  Level Salt Lake Center
02:32PM 42.2800 -117.7328 224° Southwest 410 472 32,000  Level Salt Lake Center
02:33PM 42.1956 -117.8456 225° Southwest 410 472 32,000  Level Salt Lake Center
02:34PM 42.1044 -117.9650 224° Southwest 411 473 32,000  Level Salt Lake Center
02:35PM 42.0269 -118.0706 225° Southwest 414 476 32,000  Level Salt Lake Center
02:36PM 41.9486 -118.1739 224° Southwest 413 475 32,000  Level Salt Lake Center
02:37PM 41.8575 -118.2939 224° Southwest 412 474 32,000  Level Salt Lake Center
02:38PM 41.7786 -118.3950 224° Southwest 410 472 32,000  Level Salt Lake Center
02:39PM 41.6875 -118.5150 225° Southwest 412 474 32,000  Level Salt Lake Center
02:40PM 41.6092 -118.6167 224° Southwest 411 473 32,000  Level Salt Lake Center
02:42PM 41.5175 -118.7367 224° Southwest 413 475 32,000  Level Salt Lake Center
02:43PM 41.4381 -118.8378 224° Southwest 413 475 32,000  Level Salt Lake Center
02:44PM 41.3458 -118.9564 224° Southwest 413 475 32,000  Level Salt Lake Center
02:45PM 41.2678 -119.0569 224° Southwest 410 472 32,000  Level Salt Lake Center
02:46PM 41.1742 -119.1747 223° Southwest 413 475 32,000  Level Salt Lake Center
02:47PM 41.0942 -119.2778 224° Southwest 416 479 32,000  Level Salt Lake Center
02:48PM 41.0017 -119.3939 223° Southwest 414 476 32,000  Level Salt Lake Center
02:48PM 40.9503 -119.4606 224° Southwest 413 475 32,000  Level Oakland Center
02:49PM 40.8583 -119.5769 224° Southwest 412 474 32,000  Level Oakland Center
02:51PM 40.7683 -119.6869 223° Southwest 415 478 32,000  Level Oakland Center
02:52PM 40.6864 -119.7903 224° Southwest 409 471 32,000  Level Oakland Center
02:53PM 40.6028 -119.8933 223° Southwest 413 475 32,000  Level Oakland Center
02:54PM 40.5194 -119.9969 223° Southwest 415 478 32,000  Level Oakland Center
02:55PM 40.4364 -120.1006 224° Southwest 412 474 32,000  Level Oakland Center
02:56PM 40.3536 -120.2028 223° Southwest 411 473 32,000  Level Oakland Center
02:57PM 40.2708 -120.3039 223° Southwest 410 472 32,000  Level Oakland Center
02:58PM 40.1706 -120.4261 223° Southwest 410 472 32,000  Level Oakland Center
02:59PM 40.0919 -120.5222 223° Southwest 405 466 32,000  Level Oakland Center
03:00PM 40.0086 -120.6214 222° Southwest 412 474 32,000 -120 Level Oakland Center
03:01PM 39.9267 -120.7214 223° Southwest 405 466 31,800 -360 Descending Oakland Center
03:02PM 39.8408 -120.8225 222° Southwest 414 476 31,300 -420 Descending Oakland Center
03:03PM 39.7542 -120.9269 223° Southwest 424 488 31,000 -180 Descending Oakland Center
03:04PM 39.6489 -121.0539 223° Southwest 433 498 31,000  Level Oakland Center
03:05PM 39.5572 -121.1631 223° Southwest 434 499 31,000  Level Oakland Center
03:06PM 39.4714 -121.2631 222° Southwest 433 498 31,000  Level Oakland Center
03:07PM 39.3833 -121.3689 223° Southwest 435 501 31,000  Level Oakland Center
03:08PM 39.2942 -121.4731 222° Southwest 436 502 31,000  Level Oakland Center
03:09PM 39.2053 -121.5781 222° Southwest 437 503 31,000  Level Oakland Center
03:10PM 39.1158 -121.6819 222° Southwest 437 503 31,000  Level Oakland Center
03:11PM 39.0086 -121.8061 222° Southwest 436 502 31,000  Level Oakland Center
03:12PM 38.9175 -121.9128 222° Southwest 443 510 31,000 -60 Level Oakland Center
03:13PM 38.8281 -122.0172 222° Southwest 440 506 30,900 -300 Descending Oakland Center
03:14PM 38.7375 -122.1206 222° Southwest 438 504 30,400 -600 Descending Oakland Center
03:15PM 38.6383 -122.2350 222° Southwest 441 507 29,700 -840 Descending Oakland Center
03:16PM 38.5483 -122.3403 222° Southwest 440 506 28,700 -1,260 Descending Oakland Center
03:17PM 38.4586 -122.4414 221° Southwest 434 499 27,200 -1,920 Descending Oakland Center
03:18PM 38.3686 -122.5433 222° Southwest 435 501 24,800 -1,620 Descending Oakland Center
03:19PM 38.2828 -122.6428 222° Southwest 423 487 24,000 -1,320 Descending Oakland Center
03:20PM 38.2000 -122.7311 220° Southwest 394 453 22,200 -3,420 Descending Oakland Center
03:21PM 38.0714 -122.7239 177° South 402 463 17,100 -4,320 Descending Oakland Center
03:22PM 37.9669 -122.6950 168° South 393 452 13,400 -3,000 Descending Oakland Center
03:23PM 37.8728 -122.6497 159° South 388 447 11,000 -1,380 Descending Oakland Center
03:24PM 37.8000 -122.5667 138° Southeast 377 434 11,000  Level Northern Cal TRACON
03:25PM 37.7167 -122.4833 142° Southeast 387 445 11,000  Level Northern Cal TRACON
03:26PM 37.6333 -122.4000 142° Southeast 381 438 11,000 -180 Level Northern Cal TRACON
03:27PM 37.5667 -122.3333 142° Southeast 273 314 10,700 -1,260 Descending Northern Cal TRACON
03:28PM 37.5000 -122.3000 158° South 250 288 8,500 -2,280 Descending Northern Cal TRACON
03:29PM 37.4667 -122.2333 122° Southeast 240 276 6,200 -2,160 Descending Northern Cal TRACON
03:30PM 37.4667 -122.1667 90° East 248 285 4,200 -1,440 Descending Northern Cal TRACON
03:31PM 37.5333 -122.1833 349° North 192 221 3,400 -900 Descending Northern Cal TRACON
03:32PM 37.5667 -122.2333 310° West 184 212 2,400 -1,140 Descending Northern Cal TRACON